Time;durP1;ratioP1;P1;durP2;ratioP2;P2;SDS_P1;SDS_P2;PMS_P1;PMS_P2;Temp;Humidity;BMP_temperature;BMP_pressure;BME280_temperature;BME280_humidity;BME280_pressure;Samples;Min_cycle;Max_cycle;Signal;HPM_P1;HPM_P2
2021/12/30 00:01:14;;;;;;;57.20;8.27;;;;;;;;;;5003756;28;20030;-75
2021/12/30 00:03:40;;;;;;;47.85;6.90;;;;;;;;;;4999194;28;20034;-74
2021/12/30 00:06:07;;;;;;;65.15;6.88;;;;;;;;;;4987554;28;20041;-74
2021/12/30 00:08:33;;;;;;;67.38;7.50;;;;;;;;;;4999924;28;20030;-75
2021/12/30 00:10:59;;;;;;;53.08;9.77;;;;;;;;;;5006749;28;20034;-74
2021/12/30 00:13:25;;;;;;;53.63;6.60;;;;;;;;;;4999738;28;20392;-75
2021/12/30 00:15:52;;;;;;;57.65;8.25;;;;;;;;;;4996861;28;20049;-76
2021/12/30 00:18:18;;;;;;;58.55;8.68;;;;;;;;;;4983367;28;20136;-76
2021/12/30 00:20:44;;;;;;;57.80;7.93;;;;;;;;;;4998954;28;20033;-76
2021/12/30 00:23:10;;;;;;;44.40;6.88;;;;;;;;;;5001674;28;20535;-76
2021/12/30 00:25:40;;;;;;;61.80;9.00;;;8.60;99.90;;;;;;4998360;28;20057;-75
2021/12/30 00:28:10;;;;;;;64.25;8.18;;;;;;;;;;5002434;28;20038;-75
2021/12/30 00:30:37;;;;;;;60.08;8.05;;;;;;;;;;5002988;28;20029;-75
2021/12/30 00:33:03;;;;;;;46.55;6.32;;;;;;;;;;5001779;28;20064;-76
2021/12/30 00:35:29;;;;;;;70.90;10.30;;;;;;;;;;5000643;28;20034;-75
2021/12/30 00:37:55;;;;;;;66.72;10.00;;;;;;;;;;5002497;28;20030;-74
2021/12/30 00:40:21;;;;;;;71.35;9.15;;;;;;;;;;4999372;28;20398;-74
2021/12/30 00:42:48;;;;;;;55.78;7.80;;;;;;;;;;5004757;28;20514;-75
2021/12/30 00:45:14;;;;;;;64.43;7.75;;;;;;;;;;5000938;28;20045;-75
2021/12/30 00:47:40;;;;;;;57.25;7.93;;;;;;;;;;5003268;28;20053;-75
2021/12/30 00:50:06;;;;;;;65.35;8.23;;;;;;;;;;4998070;28;20041;-75
2021/12/30 00:52:32;;;;;;;58.42;9.43;;;;;;;;;;5003857;28;20042;-75
2021/12/30 00:54:58;;;;;;;56.33;8.15;;;;;;;;;;5005055;28;20030;-74
2021/12/30 00:57:24;;;;;;;70.00;10.25;;;;;;;;;;5009508;28;20695;-76
2021/12/30 00:59:50;;;;;;;68.18;10.15;;;;;;;;;;4983351;28;20571;-75
2021/12/30 01:02:16;;;;;;;59.67;8.02;;;;;;;;;;5004894;28;20124;-75
2021/12/30 01:04:42;;;;;;;55.50;7.43;;;;;;;;;;4992194;28;20046;-75
2021/12/30 01:07:08;;;;;;;54.15;7.07;;;;;;;;;;5004796;28;20033;-76
2021/12/30 01:09:34;;;;;;;61.53;7.65;;;;;;;;;;5004848;28;20033;-73
2021/12/30 01:12:00;;;;;;;64.78;8.27;;;;;;;;;;5001511;28;20121;-74
2021/12/30 01:14:29;;;;;;;57.28;9.07;;;;;;;;;;5008732;28;20137;-73
2021/12/30 01:16:59;;;;;;;62.97;7.35;;;;;;;;;;5002273;28;20053;-73
2021/12/30 01:19:44;;;;;;;58.25;6.93;;;;;;;;;;5008606;28;20050;-73
2021/12/30 01:22:21;;;;;;;51.08;6.57;;;;;;;;;;5005211;28;20038;-74
2021/12/30 01:24:48;;;;;;;50.75;8.38;;;;;;;;;;5005880;28;20433;-74
2021/12/30 01:27:14;;;;;;;50.78;6.32;;;;;;;;;;5003173;28;20033;-74
2021/12/30 01:29:40;;;;;;;46.38;7.55;;;;;;;;;;5005703;28;20026;-74
2021/12/30 01:32:06;;;;;;;51.70;8.18;;;;;;;;;;5003705;28;20033;-74
2021/12/30 01:34:33;;;;;;;53.42;8.60;;;;;;;;;;5008361;28;20034;-74
2021/12/30 01:37:04;;;;;;;54.75;7.22;;;;;;;;;;5004750;28;20081;-74
2021/12/30 01:39:32;;;;;;;57.45;7.72;;;7.50;99.90;;;;;;5008490;28;20542;-75
2021/12/30 01:41:59;;;;;;;60.10;7.38;;;;;;;;;;5002243;28;20108;-74
2021/12/30 01:44:25;;;;;;;61.33;8.07;;;;;;;;;;5005179;28;20049;-74
2021/12/30 01:46:52;;;;;;;58.35;8.07;;;;;;;;;;5000971;28;20043;-75
2021/12/30 01:49:18;;;;;;;74.22;10.48;;;;;;;;;;5002581;28;20041;-74
2021/12/30 01:51:44;;;;;;;57.92;7.32;;;;;;;;;;4999258;28;20080;-74
2021/12/30 01:54:11;;;;;;;53.83;6.85;;;;;;;;;;5003594;28;20116;-74
2021/12/30 01:56:37;;;;;;;54.50;6.57;;;;;;;;;;5006900;28;20034;-74
2021/12/30 01:59:03;;;;;;;59.47;8.20;;;;;;;;;;4999849;28;20041;-74
2021/12/30 02:01:29;;;;;;;64.30;7.50;;;;;;;;;;5008424;28;20033;-74
2021/12/30 02:03:55;;;;;;;71.30;7.78;;;;;;;;;;4999517;28;20049;-75
2021/12/30 02:06:21;;;;;;;56.88;7.28;;;;;;;;;;5001408;28;20038;-74
2021/12/30 02:08:48;;;;;;;67.45;8.73;;;;;;;;;;4997941;28;20495;-74
2021/12/30 02:11:14;;;;;;;58.97;10.23;;;;;;;;;;5002170;28;20045;-75
2021/12/30 02:13:40;;;;;;;73.13;8.32;;;;;;;;;;5004370;28;20037;-75
2021/12/30 02:16:06;;;;;;;52.78;8.00;;;;;;;;;;5004050;28;20022;-75
2021/12/30 02:18:32;;;;;;;68.00;10.82;;;;;;;;;;5000609;28;20434;-75
2021/12/30 02:20:59;;;;;;;63.75;9.05;;;;;;;;;;5005496;28;20057;-75
2021/12/30 02:23:34;;;;;;;74.18;11.75;;;7.90;99.90;;;;;;5002367;28;20087;-74
2021/12/30 02:26:08;;;;;;;55.35;8.13;;;;;;;;;;5003778;28;20050;-75
2021/12/30 02:28:36;;;;;;;64.07;10.07;;;7.80;99.90;;;;;;5002771;28;20034;-74
2021/12/30 02:31:05;;;;;;;59.25;9.32;;;;;;;;;;5000864;28;20075;-75
2021/12/30 02:33:31;;;;;;;74.05;10.95;;;;;;;;;;5001093;28;20122;-74
2021/12/30 02:35:57;;;;;;;66.00;8.10;;;;;;;;;;4985084;28;20027;-74
2021/12/30 02:38:24;;;;;;;71.85;9.90;;;;;;;;;;4999427;28;20500;-74
2021/12/30 02:40:53;;;;;;;81.20;8.98;;;;;;;;;;4999126;28;20033;-75
2021/12/30 02:43:23;;;;;;;73.60;9.45;;;;;;;;;;5002299;28;20040;-74
2021/12/30 02:45:49;;;;;;;78.22;9.40;;;;;;;;;;5001645;28;20479;-74
2021/12/30 02:48:18;;;;;;;79.47;10.18;;;7.80;99.90;;;;;;5003820;28;20045;-74
2021/12/30 02:50:45;;;;;;;75.05;10.95;;;;;;;;;;5004734;28;20038;-74
2021/12/30 02:53:11;;;;;;;74.50;9.75;;;;;;;;;;4999523;28;20064;-74
2021/12/30 02:55:37;;;;;;;66.03;11.85;;;;;;;;;;4998140;28;20474;-74
2021/12/30 02:58:03;;;;;;;74.22;11.23;;;;;;;;;;5001916;28;20120;-76
2021/12/30 03:00:29;;;;;;;72.65;10.88;;;;;;;;;;5005322;28;20117;-75
2021/12/30 03:02:56;;;;;;;74.25;10.35;;;;;;;;;;5002123;28;20046;-76
2021/12/30 03:05:24;;;;;;;61.20;12.98;;;;;;;;;;4984059;28;20034;-75
2021/12/30 03:07:50;;;;;;;88.60;13.32;;;;;;;;;;5004190;28;20026;-76
2021/12/30 03:10:17;;;;;;;80.53;12.20;;;;;;;;;;5002210;28;20041;-75
2021/12/30 03:12:44;;;;;;;78.28;12.57;;;;;;;;;;5003216;28;20048;-75
2021/12/30 03:15:14;;;;;;;81.72;13.20;;;8.10;99.90;;;;;;5005745;28;20038;-74
2021/12/30 03:17:40;;;;;;;77.55;11.55;;;;;;;;;;5001303;28;20709;-74
2021/12/30 03:20:09;;;;;;;95.90;13.13;;;;;;;;;;5000617;28;20050;-74
2021/12/30 03:22:36;;;;;;;84.68;14.15;;;;;;;;;;4999870;28;20026;-74
2021/12/30 03:25:03;;;;;;;70.95;13.13;;;;;;;;;;5000281;28;20073;-74
2021/12/30 03:27:29;;;;;;;77.95;14.20;;;;;;;;;;5002557;28;20057;-74
2021/12/30 03:29:55;;;;;;;73.53;13.70;;;;;;;;;;5002183;28;20833;-74
2021/12/30 03:32:21;;;;;;;80.90;12.73;;;;;;;;;;5002112;28;20076;-74
2021/12/30 03:34:47;;;;;;;85.53;12.73;;;;;;;;;;5004005;28;20121;-74
2021/12/30 03:37:13;;;;;;;84.25;11.20;;;;;;;;;;5002845;28;20042;-74
2021/12/30 03:39:40;;;;;;;81.18;11.93;;;;;;;;;;5003989;28;20030;-75
2021/12/30 03:42:06;;;;;;;83.97;13.73;;;;;;;;;;5002349;28;20101;-73
2021/12/30 03:44:33;;;;;;;85.55;12.55;;;;;;;;;;5001954;28;20038;-73
2021/12/30 03:46:59;;;;;;;87.30;12.45;;;;;;;;;;4984313;28;20077;-75
2021/12/30 03:49:25;;;;;;;90.63;12.10;;;;;;;;;;4980799;28;20056;-75
2021/12/30 03:51:53;;;;;;;82.30;12.15;;;;;;;;;;4993856;28;20479;-76
2021/12/30 03:54:20;;;;;;;81.38;12.15;;;;;;;;;;4999995;28;20022;-76
2021/12/30 03:56:46;;;;;;;94.10;12.32;;;;;;;;;;4995407;28;20475;-77
2021/12/30 03:59:12;;;;;;;87.22;13.52;;;;;;;;;;5000917;28;20045;-76
2021/12/30 04:01:38;;;;;;;91.90;12.82;;;;;;;;;;5004458;28;20034;-76
2021/12/30 04:04:04;;;;;;;98.20;13.80;;;;;;;;;;4999197;28;20046;-76
2021/12/30 04:06:30;;;;;;;108.82;14.20;;;;;;;;;;5002302;28;20034;-76
2021/12/30 04:08:57;;;;;;;96.18;13.45;;;;;;;;;;5001391;28;20041;-76
2021/12/30 04:11:28;;;;;;;94.55;12.57;;;;;;;;;;5001452;28;20058;-76
2021/12/30 04:13:54;;;;;;;86.57;13.25;;;;;;;;;;4998137;28;20088;-76
2021/12/30 04:16:23;;;;;;;83.05;13.73;;;;;;;;;;5002943;28;20386;-77
2021/12/30 04:18:49;;;;;;;94.65;14.23;;;;;;;;;;4996242;28;20117;-76
2021/12/30 04:21:19;;;;;;;88.43;12.82;;;;;;;;;;5004083;28;20117;-76
2021/12/30 04:23:45;;;;;;;91.88;14.63;;;;;;;;;;4999315;28;20446;-76
2021/12/30 04:26:11;;;;;;;93.70;13.75;;;;;;;;;;4999704;28;20519;-76
2021/12/30 04:28:37;;;;;;;108.28;15.60;;;;;;;;;;4999733;28;20043;-76
2021/12/30 04:31:04;;;;;;;99.22;15.18;;;;;;;;;;5002861;28;20062;-76
2021/12/30 04:33:30;;;;;;;114.55;19.60;;;;;;;;;;4991046;28;20042;-74
2021/12/30 04:35:56;;;;;;;136.35;22.80;;;;;;;;;;5001154;28;20038;-75
2021/12/30 04:38:26;;;;;;;124.00;18.17;;;;;;;;;;5003686;28;20518;-75
2021/12/30 04:40:52;;;;;;;122.32;21.38;;;;;;;;;;5000162;28;20444;-74
2021/12/30 04:43:18;;;;;;;129.80;20.50;;;;;;;;;;5004022;28;20042;-75
2021/12/30 04:45:46;;;;;;;128.93;21.35;;;;;;;;;;4970123;28;20141;-76
2021/12/30 04:48:12;;;;;;;129.57;21.40;;;;;;;;;;4997729;28;20546;-76
2021/12/30 04:50:39;;;;;;;127.80;23.60;;;;;;;;;;4996607;28;20039;-76
2021/12/30 04:53:05;;;;;;;136.95;24.95;;;;;;;;;;5000859;28;20062;-75
2021/12/30 04:55:31;;;;;;;129.45;23.88;;;;;;;;;;4995405;28;20108;-76
2021/12/30 04:57:57;;;;;;;137.73;22.70;;;;;;;;;;5005435;28;20037;-76
2021/12/30 05:00:23;;;;;;;135.23;23.63;;;;;;;;;;4978270;28;20042;-76
2021/12/30 05:03:08;;;;;;;123.50;23.17;;;;;;;;;;4978059;28;20399;-76
2021/12/30 05:05:36;;;;;;;127.57;22.83;;;;;;;;;;5013136;28;20026;-76
2021/12/30 05:08:03;;;;;;;115.35;21.60;;;;;;;;;;4999417;28;20033;-76
2021/12/30 05:10:29;;;;;;;109.68;23.60;;;;;;;;;;5000979;28;20041;-76
2021/12/30 05:12:55;;;;;;;97.05;20.20;;;;;;;;;;4997303;28;20480;-76
2021/12/30 05:15:21;;;;;;;95.45;21.02;;;;;;;;;;5001722;28;20033;-76
2021/12/30 05:17:48;;;;;;;100.50;20.13;;;;;;;;;;4999899;28;20057;-75
2021/12/30 05:20:14;;;;;;;101.32;20.98;;;;;;;;;;5000726;28;20089;-76
2021/12/30 05:22:42;;;;;;;92.30;22.17;;;;;;;;;;4998420;28;20038;-75
2021/12/30 05:25:08;;;;;;;107.38;24.02;;;;;;;;;;4999472;28;20125;-75
2021/12/30 05:27:35;;;;;;;100.88;23.10;;;;;;;;;;4997338;28;20041;-75
2021/12/30 05:30:01;;;;;;;97.20;21.65;;;;;;;;;;5001801;28;20109;-75
2021/12/30 05:32:27;;;;;;;102.70;23.90;;;;;;;;;;4999748;28;20117;-76
2021/12/30 05:34:53;;;;;;;117.82;22.27;;;;;;;;;;5000881;28;20144;-76
2021/12/30 05:37:19;;;;;;;108.97;23.63;;;;;;;;;;4998965;28;20035;-74
2021/12/30 05:39:45;;;;;;;112.88;33.38;;;;;;;;;;5003644;28;20033;-74
2021/12/30 05:42:11;;;;;;;132.90;41.35;;;;;;;;;;4997775;28;20041;-73
2021/12/30 05:44:37;;;;;;;126.00;23.42;;;;;;;;;;5003395;28;20069;-74
2021/12/30 05:47:03;;;;;;;109.07;23.70;;;;;;;;;;5002309;28;20033;-73
2021/12/30 05:49:29;;;;;;;103.43;23.50;;;;;;;;;;5002260;28;20054;-73
2021/12/30 05:51:55;;;;;;;125.53;23.98;;;;;;;;;;5010370;28;20103;-73
2021/12/30 05:54:21;;;;;;;119.80;25.42;;;;;;;;;;4998480;28;20042;-73
2021/12/30 05:56:47;;;;;;;137.27;26.48;;;;;;;;;;5004514;28;20472;-74
2021/12/30 05:59:13;;;;;;;138.43;28.35;;;;;;;;;;4999208;28;20119;-74
2021/12/30 06:01:39;;;;;;;134.13;27.52;;;;;;;;;;5007642;28;20080;-73
2021/12/30 06:04:05;;;;;;;149.98;25.30;;;;;;;;;;5002136;28;20034;-73
2021/12/30 06:06:31;;;;;;;146.30;27.65;;;;;;;;;;4999069;28;20045;-73
2021/12/30 06:08:57;;;;;;;138.32;25.13;;;;;;;;;;5005600;28;20659;-73
2021/12/30 06:11:23;;;;;;;135.10;25.55;;;;;;;;;;5007658;28;20026;-73
2021/12/30 06:13:49;;;;;;;143.30;24.83;;;;;;;;;;5004631;28;20036;-73
2021/12/30 06:16:15;;;;;;;125.55;24.20;;;;;;;;;;4999328;28;20033;-74
2021/12/30 06:18:41;;;;;;;147.32;24.35;;;;;;;;;;5003744;28;20135;-73
2021/12/30 06:21:07;;;;;;;126.00;23.65;;;;;;;;;;4988939;28;20487;-74
2021/12/30 06:23:33;;;;;;;128.27;23.88;;;;;;;;;;5003345;28;20026;-74
2021/12/30 06:25:59;;;;;;;95.43;20.23;;;;;;;;;;4989930;28;20387;-74
2021/12/30 06:28:25;;;;;;;84.88;20.27;;;;;;;;;;5003485;28;20037;-74
2021/12/30 06:30:51;;;;;;;82.00;18.83;;;;;;;;;;5006701;28;20034;-74
2021/12/30 06:33:19;;;;;;;72.50;17.10;;;;;;;;;;5003346;28;20052;-74
2021/12/30 06:35:45;;;;;;;71.93;16.40;;;;;;;;;;5002030;28;20093;-75
2021/12/30 06:38:11;;;;;;;62.05;15.70;;;;;;;;;;5003398;28;20072;-74
2021/12/30 06:40:37;;;;;;;63.00;15.40;;;;;;;;;;4999098;28;20105;-74
2021/12/30 06:43:03;;;;;;;61.38;14.80;;;;;;;;;;4997047;28;20398;-75
2021/12/30 06:45:29;;;;;;;53.75;14.38;;;;;;;;;;5003772;28;20062;-74
2021/12/30 06:47:55;;;;;;;58.05;14.25;;;;;;;;;;4997662;28;20037;-74
2021/12/30 06:50:24;;;;;;;48.92;15.60;;;;;;;;;;4999876;28;20042;-74
2021/12/30 06:52:50;;;;;;;44.08;15.05;;;;;;;;;;5006589;28;20064;-74
2021/12/30 06:55:16;;;;;;;38.75;14.20;;;;;;;;;;5001920;28;20030;-75
2021/12/30 06:57:42;;;;;;;37.05;14.05;;;;;;;;;;5004642;28;20092;-74
2021/12/30 07:00:10;;;;;;;40.80;14.63;;;;;;;;;;5000609;28;20112;-75
2021/12/30 07:02:36;;;;;;;38.55;15.10;;;;;;;;;;4988768;28;20023;-75
2021/12/30 07:05:03;;;;;;;44.90;15.57;;;;;;;;;;4998725;28;20080;-75
2021/12/30 07:07:29;;;;;;;40.38;15.98;;;;;;;;;;5006416;28;20390;-75
2021/12/30 07:09:55;;;;;;;43.33;15.18;;;;;;;;;;4988894;28;20395;-75
2021/12/30 07:12:21;;;;;;;32.72;13.65;;;;;;;;;;5007408;28;20038;-74
2021/12/30 07:14:47;;;;;;;33.10;13.18;;;;;;;;;;5000088;28;20446;-75
2021/12/30 07:17:13;;;;;;;32.45;13.82;;;;;;;;;;5004991;28;20030;-75
2021/12/30 07:19:39;;;;;;;29.48;13.18;;;;;;;;;;4986251;28;20415;-73
2021/12/30 07:22:05;;;;;;;34.47;13.48;;;;;;;;;;4995805;28;20057;-73
2021/12/30 07:24:31;;;;;;;30.77;13.18;;;;;;;;;;5001063;28;20061;-73
2021/12/30 07:26:57;;;;;;;29.65;12.52;;;;;;;;;;4998914;28;20030;-73
2021/12/30 07:29:23;;;;;;;29.20;13.10;;;;;;;;;;5001824;28;20038;-73
2021/12/30 07:31:49;;;;;;;31.13;13.25;;;;;;;;;;5004542;28;20455;-73
2021/12/30 07:34:16;;;;;;;35.20;13.98;;;;;;;;;;4998327;28;20165;-73
2021/12/30 07:36:42;;;;;;;33.13;12.63;;;;;;;;;;4985285;28;20042;-73
2021/12/30 07:39:09;;;;;;;28.50;12.70;;;;;;;;;;4986551;28;20037;-73
2021/12/30 07:41:35;;;;;;;29.52;11.98;;;;;;;;;;4995676;28;20037;-73
2021/12/30 07:44:01;;;;;;;24.60;11.82;;;;;;;;;;5001916;28;20026;-73
2021/12/30 07:46:27;;;;;;;22.85;11.45;;;;;;;;;;4998555;28;20163;-73
2021/12/30 07:48:53;;;;;;;21.75;10.48;;;;;;;;;;5004872;28;20113;-73
2021/12/30 07:51:19;;;;;;;27.52;12.10;;;;;;;;;;4999638;28;20065;-73
2021/12/30 07:53:45;;;;;;;22.75;11.63;;;;;;;;;;5006220;28;20068;-74
2021/12/30 07:56:11;;;;;;;29.13;11.23;;;;;;;;;;5001285;28;20026;-73
2021/12/30 07:58:37;;;;;;;28.23;10.70;;;;;;;;;;4999440;28;20166;-73
2021/12/30 08:01:03;;;;;;;20.08;9.73;;;;;;;;;;4997944;28;20042;-73
2021/12/30 08:03:29;;;;;;;26.90;10.80;;;;;;;;;;4995707;28;20398;-74
2021/12/30 08:05:55;;;;;;;26.30;11.85;;;;;;;;;;5004223;28;20045;-74
2021/12/30 08:08:22;;;;;;;24.27;11.20;;;;;;;;;;4998101;28;20049;-73
2021/12/30 08:10:48;;;;;;;26.60;11.18;;;;;;;;;;5003841;28;20033;-73
2021/12/30 08:13:14;;;;;;;33.78;11.52;;;;;;;;;;5001931;28;20030;-73
2021/12/30 08:15:40;;;;;;;25.02;13.25;;;;;;;;;;5005038;28;20034;-73
2021/12/30 08:18:06;;;;;;;37.92;12.13;;;;;;;;;;5000479;28;20097;-73
2021/12/30 08:20:32;;;;;;;57.30;14.05;;;;;;;;;;4999902;28;20042;-73
2021/12/30 08:22:58;;;;;;;28.80;11.73;;;;;;;;;;5002262;28;20451;-73
2021/12/30 08:25:24;;;;;;;27.33;9.70;;;;;;;;;;5001056;28;20254;-73
2021/12/30 08:27:51;;;;;;;32.97;9.40;;;;;;;;;;4996602;28;20030;-73
2021/12/30 08:30:18;;;;;;;27.45;8.88;;;;;;;;;;4980611;28;20092;-73
2021/12/30 08:32:45;;;;;;;26.50;7.82;;;;;;;;;;5000029;28;20068;-73
2021/12/30 08:35:15;;;;;;;22.63;8.77;;;;;;;;;;5003453;28;20501;-73
2021/12/30 08:37:41;;;;;;;37.25;8.93;;;;;;;;;;4997463;28;20081;-73
2021/12/30 08:40:09;;;;;;;28.75;8.60;;;;;;;;;;4973982;28;20033;-73
2021/12/30 08:42:35;;;;;;;22.80;7.90;;;;;;;;;;4997779;28;20034;-74
2021/12/30 08:45:01;;;;;;;30.98;8.90;;;;;;;;;;4998688;28;20533;-77
2021/12/30 08:47:28;;;;;;;34.80;9.40;;;;;;;;;;4994902;28;20056;-77
2021/12/30 08:49:55;;;;;;;32.45;8.75;;;;;;;;;;4999253;28;20034;-77
2021/12/30 08:52:22;;;;;;;29.50;7.80;;;;;;;;;;4998813;28;20079;-77
2021/12/30 08:54:48;;;;;;;27.30;8.52;;;;;;;;;;4966680;28;20050;-77
2021/12/30 08:57:15;;;;;;;31.52;10.88;;;;;;;;;;4996681;28;20034;-75
2021/12/30 08:59:41;;;;;;;42.20;10.63;;;;;;;;;;4997902;28;20406;-76
2021/12/30 09:02:08;;;;;;;33.60;8.65;;;;;;;;;;4997668;28;20026;-76
2021/12/30 09:04:34;;;;;;;39.50;8.38;;;;;;;;;;4997586;28;20052;-74
2021/12/30 09:07:00;;;;;;;34.22;7.45;;;;;;;;;;5002880;28;20443;-75
2021/12/30 09:09:27;;;;;;;37.78;6.93;;;;;;;;;;4996329;28;20058;-77
2021/12/30 09:11:53;;;;;;;37.88;7.53;;;;;;;;;;5001753;28;20606;-76
2021/12/30 09:14:19;;;;;;;35.45;7.60;;;;;;;;;;5004423;28;20121;-77
2021/12/30 09:16:48;;;;;;;25.25;6.53;;;;;;;;;;5002975;28;20026;-77
2021/12/30 09:19:14;;;;;;;32.15;6.75;;;;;;;;;;5002453;28;20057;-76
2021/12/30 09:21:41;;;;;;;28.88;6.00;;;;;;;;;;4988567;28;20489;-77
2021/12/30 09:24:08;;;;;;;26.30;6.70;;;;;;;;;;4985656;28;20037;-74
2021/12/30 09:26:34;;;;;;;32.50;9.10;;;;;;;;;;5003212;28;20471;-75
2021/12/30 09:29:00;;;;;;;28.88;5.82;;;;;;;;;;4988163;28;20042;-75
2021/12/30 09:31:28;;;;;;;24.27;6.20;;;;;;;;;;5007197;28;20069;-74
2021/12/30 09:33:54;;;;;;;26.30;6.55;;;;;;;;;;5004239;28;20033;-75
2021/12/30 09:36:21;;;;;;;29.80;6.70;;;;;;;;;;5006009;28;20058;-76
2021/12/30 09:38:47;;;;;;;24.52;6.50;;;;;;;;;;4985403;28;20031;-76
2021/12/30 09:41:13;;;;;;;27.95;6.88;;;;;;;;;;5001520;28;20065;-76
2021/12/30 09:43:39;;;;;;;20.83;5.47;;;;;;;;;;5004557;28;20029;-76
2021/12/30 09:46:05;;;;;;;31.05;6.70;;;;;;;;;;4999191;28;20390;-76
2021/12/30 09:48:31;;;;;;;25.20;5.53;;;;;;;;;;5006371;28;20397;-76
2021/12/30 09:50:58;;;;;;;29.85;4.82;;;;;;;;;;4998472;28;20046;-74
2021/12/30 09:53:25;;;;;;;30.77;6.03;;;;;;;;;;5007015;28;20406;-74
2021/12/30 09:55:52;;;;;;;33.03;4.65;;;;;;;;;;5001359;28;20113;-74
2021/12/30 09:58:18;;;;;;;32.90;6.63;;;;;;;;;;4998200;28;20161;-76
2021/12/30 10:00:45;;;;;;;40.35;8.32;;;;;;;;;;5001913;28;20034;-76
2021/12/30 10:03:11;;;;;;;28.70;5.47;;;;;;;;;;4995171;28;20037;-76
2021/12/30 10:05:39;;;;;;;33.20;5.32;;;;;;;;;;5005551;28;20084;-76
2021/12/30 10:08:08;;;;;;;37.03;6.22;;;;;;;;;;5001291;28;20584;-76
2021/12/30 10:10:36;;;;;;;35.22;6.20;;;;;;;;;;5002747;28;20104;-76
2021/12/30 10:13:14;;;;;;;30.35;5.90;;;;;;;;;;4997629;28;20116;-76
2021/12/30 10:15:41;;;;;;;32.03;5.60;;;;;;;;;;5001101;28;20036;-76
2021/12/30 10:18:07;;;;;;;30.67;4.85;;;;;;;;;;4985998;28;20107;-76
2021/12/30 10:20:33;;;;;;;39.10;6.40;;;;;;;;;;4999581;28;20070;-75
2021/12/30 10:23:20;;;;;;;43.67;7.07;;;11.40;99.90;;;;;;4983332;28;20030;-76
2021/12/30 10:25:49;;;;;;;38.10;6.60;;;11.50;99.90;;;;;;5003555;28;20121;-76
2021/12/30 10:28:35;;;;;;;31.38;6.57;;;11.50;99.90;;;;;;5002019;28;20566;-75
2021/12/30 10:31:01;;;;;;;39.75;6.90;;;;;;;;;;5001910;28;20042;-75
2021/12/30 10:33:29;;;;;;;37.75;7.93;;;11.50;99.90;;;;;;5000720;28;20022;-76
2021/12/30 10:35:57;;;;;;;45.78;7.32;;;;;;;;;;5001022;28;20042;-76
2021/12/30 10:38:23;;;;;;;44.85;8.45;;;;;;;;;;5002618;28;20030;-75
2021/12/30 10:40:50;;;;;;;40.08;9.05;;;;;;;;;;4999424;28;20065;-75
2021/12/30 10:46:12;;;;;;;35.70;8.00;;;;;;;;;;5003406;28;20113;-75
2021/12/30 10:48:49;;;;;;;47.78;8.02;;;;;;;;;;4991565;28;20049;-75
2021/12/30 10:51:19;;;;;;;46.35;7.68;;;;;;;;;;5000023;28;20142;-75
2021/12/30 10:53:45;;;;;;;52.13;8.23;;;;;;;;;;5004724;28;20034;-76
2021/12/30 10:56:20;;;;;;;42.08;9.02;;;11.40;99.90;;;;;;5004252;28;20026;-74
2021/12/30 10:58:46;;;;;;;52.67;8.77;;;;;;;;;;4998060;28;20057;-75
2021/12/30 11:01:16;;;;;;;63.95;9.93;;;;;;;;;;5001105;28;20062;-75
2021/12/30 11:03:42;;;;;;;44.65;8.70;;;;;;;;;;4979089;28;20095;-75
2021/12/30 11:06:19;;;;;;;45.00;7.10;;;11.60;99.90;;;;;;5001683;28;20034;-75
2021/12/30 11:08:50;;;;;;;46.28;9.05;;;;;;;;;;5001204;28;20072;-75
2021/12/30 11:11:28;;;;;;;71.68;11.63;;;11.30;99.90;;;;;;5004385;28;20049;-76
2021/12/30 11:13:58;;;;;;;53.97;9.30;;;;;;;;;;5002134;28;20455;-75
2021/12/30 11:16:24;;;;;;;49.60;8.25;;;;;;;;;;5004119;28;20414;-75
2021/12/30 11:18:50;;;;;;;59.08;9.52;;;;;;;;;;4987871;28;20045;-75
2021/12/30 11:21:35;;;;;;;54.45;9.20;;;;;;;;;;5003450;28;20018;-75
2021/12/30 11:24:02;;;;;;;49.03;9.27;;;;;;;;;;4995654;28;20045;-76
2021/12/30 11:26:28;;;;;;;56.05;9.15;;;;;;;;;;4997573;28;20037;-76
2021/12/30 11:28:54;;;;;;;60.42;9.40;;;;;;;;;;4999842;28;20030;-76
2021/12/30 11:31:20;;;;;;;55.55;7.55;;;;;;;;;;5002296;28;20456;-75
2021/12/30 11:33:46;;;;;;;48.63;8.40;;;;;;;;;;5000022;28;20044;-76
2021/12/30 11:36:12;;;;;;;53.55;8.75;;;;;;;;;;5001045;28;20108;-76
2021/12/30 11:38:38;;;;;;;43.97;7.03;;;;;;;;;;5002786;28;20026;-76
2021/12/30 11:41:05;;;;;;;62.75;9.60;;;;;;;;;;4993998;28;20387;-76
2021/12/30 11:43:49;;;;;;;62.60;9.18;;;;;;;;;;4996383;28;20096;-76
2021/12/30 11:46:38;;;;;;;59.50;9.05;;;11.60;99.90;;;;;;5002121;28;20420;-76
2021/12/30 11:49:05;;;;;;;51.15;7.15;;;11.80;99.90;;;;;;4996489;28;20085;-76
2021/12/30 11:51:46;;;;;;;49.33;9.10;;;;;;;;;;5007284;28;20447;-76
2021/12/30 11:54:31;;;;;;;37.72;7.30;;;;;;;;;;4999356;28;20042;-74
2021/12/30 11:57:16;;;;;;;49.20;8.35;;;;;;;;;;5002946;28;20052;-74
2021/12/30 11:59:42;;;;;;;46.55;7.53;;;;;;;;;;4996158;28;20041;-74
2021/12/30 12:02:27;;;;;;;57.92;7.82;;;;;;;;;;5002468;28;20105;-75
2021/12/30 12:04:53;;;;;;;40.65;7.00;;;;;;;;;;4984859;28;20037;-76
2021/12/30 12:07:19;;;;;;;44.92;6.90;;;;;;;;;;5003754;28;20038;-75
2021/12/30 12:09:46;;;;;;;46.55;8.18;;;;;;;;;;4981194;28;20030;-75
2021/12/30 12:12:13;;;;;;;49.60;8.13;;;;;;;;;;5001613;28;20042;-74
2021/12/30 12:14:41;;;;;;;41.53;7.05;;;;;;;;;;4999568;28;20434;-75
2021/12/30 12:17:11;;;;;;;28.73;6.32;;;;;;;;;;5011023;28;20030;-75
2021/12/30 12:19:37;;;;;;;51.50;7.78;;;;;;;;;;5002907;28;20038;-75
2021/12/30 12:22:05;;;;;;;41.33;6.93;;;;;;;;;;5006875;28;20026;-74
2021/12/30 12:24:33;;;;;;;42.50;8.32;;;;;;;;;;5003547;28;20030;-75
2021/12/30 12:27:01;;;;;;;42.78;9.45;;;;;;;;;;5003139;28;20110;-75
2021/12/30 12:29:28;;;;;;;48.15;8.32;;;;;;;;;;5005759;28;20402;-75
2021/12/30 12:31:56;;;;;;;43.47;5.50;;;;;;;;;;5002206;28;20033;-75
2021/12/30 12:34:36;;;;;;;49.92;8.40;;;;;;;;;;5002280;28;20623;-75
2021/12/30 12:37:03;;;;;;;43.25;6.80;;;;;;;;;;4996443;28;20033;-76
2021/12/30 12:39:33;;;;;;;41.97;7.10;;;;;;;;;;4993312;28;20034;-76
2021/12/30 12:41:59;;;;;;;49.80;8.63;;;;;;;;;;4995495;28;20113;-76
2021/12/30 12:44:25;;;;;;;44.88;7.80;;;;;;;;;;5000122;28;20044;-76
2021/12/30 12:46:54;;;;;;;53.95;9.73;;;;;;;;;;4985670;28;20030;-76
2021/12/30 12:49:32;;;;;;;42.20;6.63;;;;;;;;;;4999481;28;20042;-76
2021/12/30 12:51:58;;;;;;;39.20;7.50;;;;;;;;;;4998948;28;20034;-76
2021/12/30 12:54:35;;;;;;;33.17;5.70;;;;;;;;;;4999789;28;20427;-76
2021/12/30 12:57:06;;;;;;;41.03;6.78;;;;;;;;;;4999146;28;20034;-75
2021/12/30 12:59:35;;;;;;;39.00;6.47;;;;;;;;;;5006854;28;20034;-75
2021/12/30 13:02:01;;;;;;;48.65;8.20;;;;;;;;;;4982156;28;20026;-76
2021/12/30 13:04:27;;;;;;;43.90;7.18;;;;;;;;;;4997543;28;20046;-76
2021/12/30 13:06:53;;;;;;;47.55;7.43;;;;;;;;;;4981743;28;20081;-76
2021/12/30 13:09:22;;;;;;;50.38;7.95;;;;;;;;;;4998715;28;20034;-76
2021/12/30 13:11:50;;;;;;;47.25;7.43;;;;;;;;;;4994255;28;20707;-76
2021/12/30 13:14:19;;;;;;;43.95;7.40;;;;;;;;;;4990931;28;20455;-76
2021/12/30 13:16:46;;;;;;;45.38;7.07;;;;;;;;;;4995516;28;20031;-75
2021/12/30 13:19:12;;;;;;;43.90;7.43;;;;;;;;;;4993288;28;20079;-73
2021/12/30 13:21:46;;;;;;;42.58;6.78;;;;;;;;;;4998742;28;20026;-74
2021/12/30 13:24:42;;;;;;;48.25;8.20;;;;;;;;;;5000803;28;20053;-74
2021/12/30 13:27:14;;;;;;;43.58;7.70;;;;;;;;;;4930611;28;20549;-74
2021/12/30 13:29:41;;;;;;;54.92;7.80;;;;;;;;;;4999973;28;20395;-74
2021/12/30 13:32:08;;;;;;;45.13;7.10;;;;;;;;;;4983242;28;20037;-74
2021/12/30 13:34:35;;;;;;;38.17;7.18;;;;;;;;;;4999254;28;20034;-74
2021/12/30 13:37:12;;;;;;;48.80;7.60;;;;;;;;;;5002071;28;20029;-74
2021/12/30 13:39:38;;;;;;;47.95;8.38;;;;;;;;;;5004561;28;20053;-76
2021/12/30 13:42:04;;;;;;;49.15;8.13;;;;;;;;;;5000813;28;20027;-78
2021/12/30 13:44:44;;;;;;;52.45;7.07;;;;;;;;;;4999044;28;20041;-76
2021/12/30 13:47:15;;;;;;;41.72;6.63;;;;;;;;;;4997244;28;20121;-79
2021/12/30 13:49:41;;;;;;;45.60;8.95;;;;;;;;;;5001430;28;20038;-80
2021/12/30 13:52:07;;;;;;;44.22;7.00;;;;;;;;;;4993852;28;20038;-78
2021/12/30 13:54:33;;;;;;;39.13;7.38;;;;;;;;;;4993683;28;20022;-79
2021/12/30 13:56:59;;;;;;;43.42;7.35;;;;;;;;;;4995702;28;20121;-80
2021/12/30 13:59:30;;;;;;;49.88;6.68;;;;;;;;;;4984788;28;20046;-72
2021/12/30 14:01:59;;;;;;;49.38;7.43;;;;;;;;;;4996927;28;20476;-73
2021/12/30 14:04:28;;;;;;;52.28;9.50;;;;;;;;;;5001486;28;20476;-73
2021/12/30 14:06:58;;;;;;;53.75;8.57;;;;;;;;;;5000779;28;20037;-73
2021/12/30 14:09:25;;;;;;;40.92;7.82;;;;;;;;;;5002959;28;20124;-73
2021/12/30 14:11:52;;;;;;;38.53;8.07;;;;;;;;;;4999513;28;20113;-73
2021/12/30 14:14:30;;;;;;;53.53;7.22;;;;;;;;;;4998792;28;20080;-74
2021/12/30 14:17:03;;;;;;;53.22;7.78;;;;;;;;;;4989339;28;20505;-73
2021/12/30 14:19:31;;;;;;;43.03;6.40;;;;;;;;;;4996234;28;20688;-73
2021/12/30 14:21:57;;;;;;;40.97;7.00;;;;;;;;;;4986819;28;20033;-73
2021/12/30 14:24:28;;;;;;;42.58;6.55;;;;;;;;;;4973005;28;20480;-74